createdAt,value
2018-09-21T00:00:53.140Z,22.88
2018-09-21T00:03:21.911Z,22.93
2018-09-21T00:05:50.593Z,22.94
2018-09-21T00:08:20.090Z,22.88
2018-09-21T00:10:49.091Z,22.86
2018-09-21T00:13:18.047Z,22.82
2018-09-21T00:15:46.497Z,22.76
2018-09-21T00:18:15.451Z,22.77
2018-09-21T00:20:45.093Z,22.74
2018-09-21T00:23:13.989Z,22.77
2018-09-21T00:25:42.615Z,22.67
2018-09-21T00:28:11.765Z,22.64
2018-09-21T00:30:40.519Z,22.66
2018-09-21T00:33:09.032Z,22.67
2018-09-21T00:35:37.853Z,22.71
2018-09-21T00:38:06.895Z,22.74
2018-09-21T00:40:35.809Z,22.79
2018-09-21T00:43:09.956Z,22.80
2018-09-21T00:45:39.257Z,22.71
2018-09-21T00:48:08.382Z,22.67
2018-09-21T00:50:37.371Z,22.65
2018-09-21T00:53:06.487Z,22.61
2018-09-21T00:55:35.023Z,22.58
2018-09-21T00:58:04.005Z,22.64
2018-09-21T01:00:32.937Z,22.76
2018-09-21T01:03:01.529Z,22.78
2018-09-21T01:05:30.313Z,22.77
2018-09-21T01:07:59.432Z,22.74
2018-09-21T01:10:28.091Z,22.61
2018-09-21T01:12:57.143Z,22.59
2018-09-21T01:15:27.209Z,22.64
2018-09-21T01:17:56.038Z,22.68
2018-09-21T01:20:25.711Z,22.61
2018-09-21T01:22:55.343Z,22.50
2018-09-21T01:25:24.379Z,22.44
2018-09-21T01:27:53.255Z,22.36
2018-09-21T01:30:21.974Z,22.38
2018-09-21T01:32:51.103Z,22.43
2018-09-21T01:35:20.023Z,22.41
2018-09-21T01:37:49.166Z,22.42
2018-09-21T01:40:18.011Z,22.51
2018-09-21T01:42:46.992Z,22.55
2018-09-21T01:45:16.197Z,22.54
2018-09-21T01:47:44.911Z,22.53
2018-09-21T01:50:13.968Z,22.54
2018-09-21T01:52:43.034Z,22.53
2018-09-21T01:55:11.974Z,22.56
2018-09-21T01:57:40.811Z,22.54
2018-09-21T02:00:09.838Z,22.44
2018-09-21T02:02:38.928Z,22.44
2018-09-21T02:05:07.776Z,22.44
2018-09-21T02:07:36.922Z,22.49
2018-09-21T02:10:05.717Z,22.44
2018-09-21T02:12:34.831Z,22.44
2018-09-21T02:15:03.531Z,22.40
2018-09-21T02:17:32.530Z,22.41
2018-09-21T02:20:01.384Z,22.42
2018-09-21T02:22:30.290Z,22.35
2018-09-21T02:24:59.046Z,22.23
2018-09-21T02:27:27.767Z,22.15
2018-09-21T02:29:56.605Z,22.15
2018-09-21T02:32:25.011Z,22.17
2018-09-21T02:34:53.822Z,22.18
2018-09-21T02:37:22.429Z,22.19
2018-09-21T02:39:51.222Z,22.16
2018-09-21T02:42:20.027Z,22.12
2018-09-21T02:44:48.486Z,22.12
2018-09-21T02:47:17.847Z,22.11
2018-09-21T02:49:46.579Z,22.09
2018-09-21T02:52:15.736Z,22.05
2018-09-21T02:54:45.606Z,22.11
2018-09-21T02:57:14.377Z,22.06
2018-09-21T02:59:43.230Z,22.03
2018-09-21T03:02:11.600Z,22.00
2018-09-21T03:04:45.247Z,22.01
2018-09-21T03:07:14.215Z,22.02
2018-09-21T03:09:42.862Z,22.04
2018-09-21T03:12:11.381Z,22.04
2018-09-21T03:14:40.045Z,22.04
2018-09-21T03:17:08.628Z,22.01
2018-09-21T03:19:37.099Z,21.98
2018-09-21T03:22:05.818Z,21.98
2018-09-21T03:24:39.303Z,21.98
2018-09-21T03:27:08.358Z,21.98
2018-09-21T03:29:36.915Z,22.00
2018-09-21T03:32:05.453Z,22.00
2018-09-21T03:34:33.959Z,22.04
2018-09-21T03:37:04.686Z,22.02
2018-09-21T03:39:33.697Z,22.03
2018-09-21T03:42:02.864Z,22.02
2018-09-21T03:44:31.707Z,22.02
2018-09-21T03:47:01.213Z,22.05
2018-09-21T03:49:30.459Z,22.04
2018-09-21T03:51:59.385Z,22.05
2018-09-21T03:54:28.443Z,22.05
2018-09-21T03:56:57.457Z,22.05
2018-09-21T03:59:26.415Z,22.05
2018-09-21T04:01:54.931Z,22.05
2018-09-21T04:04:23.680Z,22.05
2018-09-21T04:06:52.120Z,22.06
2018-09-21T04:09:20.644Z,22.04
2018-09-21T04:11:49.268Z,22.00
2018-09-21T04:14:18.182Z,21.97
2018-09-21T04:16:47.047Z,21.95
2018-09-21T04:19:15.596Z,21.95
2018-09-21T04:21:44.714Z,21.95
2018-09-21T04:24:13.651Z,21.91
2018-09-21T04:26:42.299Z,21.90
2018-09-21T04:29:11.685Z,21.90
2018-09-21T04:31:40.520Z,21.87
2018-09-21T04:34:09.076Z,21.87
2018-09-21T04:36:37.527Z,21.89
2018-09-21T04:39:08.966Z,21.85
2018-09-21T04:41:38.152Z,21.84
2018-09-21T04:44:07.059Z,21.84
2018-09-21T04:46:35.546Z,21.82
2018-09-21T04:49:04.199Z,21.82
2018-09-21T04:51:32.896Z,21.82
2018-09-21T04:54:01.518Z,21.83
2018-09-21T04:56:30.087Z,21.81
2018-09-21T04:58:59.292Z,21.79
2018-09-21T05:01:28.146Z,21.74
2018-09-21T05:03:56.815Z,21.70
2018-09-21T05:06:25.464Z,21.69
2018-09-21T05:08:54.462Z,21.64
2018-09-21T05:11:23.119Z,21.62
2018-09-21T05:13:52.463Z,21.60
2018-09-21T05:16:21.000Z,21.64
2018-09-21T05:18:49.547Z,21.59
2018-09-21T05:21:18.242Z,21.56
2018-09-21T05:23:46.968Z,21.59
2018-09-21T05:26:15.964Z,21.66
2018-09-21T05:28:44.738Z,21.70
2018-09-21T05:31:13.330Z,21.70
2018-09-21T05:33:41.970Z,21.77
2018-09-21T05:36:11.696Z,21.84
2018-09-21T05:38:40.845Z,21.89
2018-09-21T05:41:09.466Z,21.89
2018-09-21T05:43:38.099Z,21.91
2018-09-21T05:46:06.964Z,21.97
2018-09-21T05:48:35.611Z,21.99
2018-09-21T05:51:04.454Z,22.02
2018-09-21T05:53:33.594Z,22.03
2018-09-21T05:56:02.096Z,22.07
2018-09-21T05:58:30.891Z,22.08
2018-09-21T06:00:59.802Z,22.11
2018-09-21T06:03:28.363Z,22.13
2018-09-21T06:05:57.109Z,22.17
2018-09-21T06:08:40.511Z,22.23
2018-09-21T06:11:09.070Z,22.28
2018-09-21T06:13:39.040Z,22.30
2018-09-21T06:16:08.003Z,22.32
2018-09-21T06:18:36.594Z,22.37
2018-09-21T06:21:06.749Z,22.45
2018-09-21T06:23:35.387Z,22.46
2018-09-21T06:26:04.018Z,22.54
2018-09-21T06:28:32.938Z,22.56
2018-09-21T06:31:01.732Z,22.61
2018-09-21T06:33:30.608Z,22.67
2018-09-21T06:35:59.097Z,22.68
2018-09-21T06:38:28.093Z,22.70
2018-09-21T06:40:57.047Z,22.74
2018-09-21T06:43:25.846Z,22.81
2018-09-21T06:45:54.400Z,22.86
2018-09-21T06:48:23.908Z,22.88
2018-09-21T06:50:52.852Z,22.86
2018-09-21T06:53:21.444Z,22.92
2018-09-21T06:55:50.390Z,22.94
2018-09-21T06:58:21.262Z,22.91
2018-09-21T07:00:50.306Z,22.91
2018-09-21T07:03:19.102Z,22.95
2018-09-21T07:05:48.144Z,22.97
2018-09-21T07:08:16.726Z,22.99
2018-09-21T07:10:45.412Z,23.02
2018-09-21T07:13:14.018Z,23.00
2018-09-21T07:15:42.844Z,23.02
2018-09-21T07:18:11.965Z,23.02
2018-09-21T07:20:41.006Z,23.06
2018-09-21T07:23:12.291Z,23.09
2018-09-21T07:25:41.388Z,23.16
2018-09-21T07:28:10.480Z,23.25
2018-09-21T07:30:39.330Z,23.27
2018-09-21T07:33:08.141Z,23.30
2018-09-21T07:35:36.706Z,23.33
2018-09-21T07:38:05.755Z,23.39
2018-09-21T07:40:34.958Z,23.51
2018-09-21T07:43:03.881Z,23.58
2018-09-21T07:45:32.675Z,23.63
2018-09-21T07:48:01.504Z,23.72
2018-09-21T07:50:30.551Z,23.80
2018-09-21T07:52:59.449Z,23.86
2018-09-21T07:55:28.542Z,23.92
2018-09-21T07:57:57.397Z,23.96
2018-09-21T08:00:26.263Z,24.03
2018-09-21T08:02:55.047Z,24.16
2018-09-21T08:05:28.803Z,24.23
2018-09-21T08:08:00.260Z,24.36
2018-09-21T08:10:29.228Z,24.56
2018-09-21T08:12:58.190Z,24.66
2018-09-21T08:15:27.114Z,24.72
2018-09-21T08:17:56.152Z,24.77
2018-09-21T08:20:25.167Z,24.83
2018-09-21T08:22:53.682Z,24.86
2018-09-21T08:25:23.883Z,24.86
2018-09-21T08:27:52.758Z,24.93
2018-09-21T08:30:21.231Z,25.04
2018-09-21T08:32:50.477Z,25.10
2018-09-21T08:35:20.850Z,25.26
2018-09-21T08:37:49.539Z,25.33
2018-09-21T08:40:20.241Z,25.45
2018-09-21T08:42:48.924Z,25.59
2018-09-21T08:45:17.424Z,25.74
2018-09-21T08:47:46.377Z,25.87
2018-09-21T08:52:58.370Z,26.22
2018-09-21T08:58:08.868Z,26.52
2018-09-21T09:00:38.831Z,26.67
2018-09-21T09:03:08.151Z,26.77
2018-09-21T09:05:36.827Z,26.88
2018-09-21T09:08:05.535Z,27.02
2018-09-21T09:10:34.428Z,27.19
2018-09-21T09:13:02.981Z,27.37
2018-09-21T09:15:31.766Z,27.49
2018-09-21T09:18:15.148Z,27.69
2018-09-21T09:20:43.684Z,27.91
2018-09-21T09:23:12.814Z,28.04
2018-09-21T09:25:42.098Z,28.14
2018-09-21T09:28:10.695Z,28.29
2018-09-21T09:30:39.831Z,28.21
2018-09-21T09:33:09.108Z,27.97
2018-09-21T09:38:38.383Z,27.60
2018-09-21T09:41:07.775Z,27.48
2018-09-21T09:43:36.979Z,27.38
2018-09-21T09:46:05.764Z,27.36
2018-09-21T09:48:34.400Z,27.37
2018-09-21T09:51:03.691Z,27.40
2018-09-21T09:53:32.870Z,27.32
2018-09-21T09:56:01.534Z,27.26
2018-09-21T09:58:32.421Z,27.22
2018-09-21T10:01:01.123Z,27.41
2018-09-21T10:03:30.540Z,28.10
2018-09-21T10:05:58.966Z,28.81
2018-09-21T10:08:27.894Z,29.13
2018-09-21T10:10:56.951Z,29.25
2018-09-21T10:16:23.305Z,29.24
2018-09-21T10:18:52.462Z,29.31
2018-09-21T10:21:21.264Z,29.20
2018-09-21T10:23:51.531Z,29.61
2018-09-21T10:26:30.660Z,30.31
2018-09-21T10:29:00.070Z,30.19
2018-09-21T10:31:28.698Z,30.31
2018-09-21T10:33:57.391Z,30.19
2018-09-21T10:36:27.212Z,30.36
2018-09-21T10:38:56.672Z,30.37
2018-09-21T10:41:25.547Z,30.24
2018-09-21T10:43:54.734Z,30.25
2018-09-21T10:46:24.136Z,30.10
2018-09-21T10:48:54.220Z,29.84
2018-09-21T10:51:22.791Z,29.56
2018-09-21T10:53:51.586Z,29.26
2018-09-21T10:56:20.848Z,29.08
2018-09-21T10:58:49.496Z,28.96
2018-09-21T11:01:18.754Z,28.83
2018-09-21T11:03:47.661Z,28.81
2018-09-21T11:06:16.430Z,28.80
2018-09-21T11:08:45.188Z,28.68
2018-09-21T11:11:13.658Z,28.60
2018-09-21T11:13:42.450Z,28.46
2018-09-21T11:16:11.209Z,28.38
2018-09-21T11:18:40.001Z,28.37
2018-09-21T11:21:08.697Z,28.38
2018-09-21T11:23:37.656Z,28.51
2018-09-21T11:26:06.216Z,28.66
2018-09-21T11:28:35.290Z,28.76
2018-09-21T11:31:04.295Z,28.71
2018-09-21T11:33:33.848Z,28.62
2018-09-21T11:36:02.459Z,28.49
2018-09-21T11:38:31.350Z,28.39
2018-09-21T11:41:00.151Z,28.32
2018-09-21T11:43:29.680Z,28.23
2018-09-21T11:45:58.519Z,28.13
2018-09-21T11:48:27.200Z,28.08
2018-09-21T11:50:55.967Z,28.01
2018-09-21T11:53:25.289Z,27.95
2018-09-21T11:55:54.076Z,27.86
2018-09-21T11:58:22.848Z,27.83
2018-09-21T12:00:51.499Z,27.80
2018-09-21T12:03:20.371Z,27.75
2018-09-21T12:05:49.982Z,27.70
2018-09-21T12:08:18.822Z,27.66
2018-09-21T12:10:47.254Z,27.60
2018-09-21T12:13:15.972Z,27.55
2018-09-21T12:15:44.806Z,27.53
2018-09-21T12:18:13.900Z,27.51
2018-09-21T12:20:42.788Z,27.44
2018-09-21T12:23:11.645Z,27.42
2018-09-21T12:25:40.834Z,27.40
2018-09-21T12:28:09.591Z,27.37
2018-09-21T12:30:38.760Z,27.37
2018-09-21T12:33:08.644Z,27.37
2018-09-21T12:35:37.991Z,27.32
2018-09-21T12:38:06.795Z,27.32
2018-09-21T12:40:36.051Z,27.33
2018-09-21T12:43:09.943Z,27.36
2018-09-21T12:45:39.627Z,27.45
2018-09-21T12:48:08.534Z,27.62
2018-09-21T12:50:39.161Z,27.85
2018-09-21T12:53:08.013Z,28.01
2018-09-21T12:55:38.920Z,28.00
2018-09-21T12:58:08.028Z,27.95
2018-09-21T13:00:41.698Z,27.90
2018-09-21T13:03:10.535Z,27.85
2018-09-21T13:05:43.599Z,27.83
2018-09-21T13:08:12.693Z,27.88
2018-09-21T13:10:41.276Z,27.92
2018-09-21T13:13:10.146Z,27.93
2018-09-21T13:15:38.998Z,27.95
2018-09-21T13:18:08.025Z,27.97
2018-09-21T13:20:36.878Z,27.97
2018-09-21T13:23:05.762Z,27.90
2018-09-21T13:25:34.607Z,27.86
2018-09-21T13:28:03.553Z,27.90
2018-09-21T13:30:32.436Z,27.93
2018-09-21T13:33:01.383Z,27.96
2018-09-21T13:35:29.934Z,28.02
2018-09-21T13:37:58.868Z,28.04
2018-09-21T13:40:27.718Z,28.00
2018-09-21T13:42:56.436Z,27.92
2018-09-21T13:45:25.540Z,27.92
2018-09-21T13:47:54.995Z,27.90
2018-09-21T13:50:23.962Z,27.88
2018-09-21T13:52:53.008Z,27.88
2018-09-21T13:55:21.571Z,27.89
2018-09-21T13:57:51.382Z,27.86
2018-09-21T14:00:20.464Z,27.90
2018-09-21T14:02:48.993Z,27.88
2018-09-21T14:05:17.903Z,27.90
2018-09-21T14:07:46.708Z,27.83
2018-09-21T14:10:15.940Z,27.76
2018-09-21T14:12:44.836Z,27.75
2018-09-21T14:15:28.248Z,27.66
2018-09-21T14:17:58.371Z,27.61
2018-09-21T14:20:28.351Z,27.58
2018-09-21T14:22:57.034Z,27.55
2018-09-21T14:25:26.666Z,27.44
2018-09-21T14:27:55.328Z,27.41
2018-09-21T14:30:24.422Z,27.33
2018-09-21T14:32:55.370Z,27.28
2018-09-21T14:35:24.734Z,27.24
2018-09-21T14:37:53.538Z,27.15
2018-09-21T14:40:22.770Z,27.12
2018-09-21T14:42:52.064Z,27.07
2018-09-21T14:45:21.055Z,26.91
2018-09-21T14:47:49.545Z,26.79
2018-09-21T14:50:18.404Z,26.73
2018-09-21T14:52:46.864Z,26.67
2018-09-21T14:55:17.382Z,26.68
2018-09-21T14:57:46.308Z,26.76
2018-09-21T15:00:14.891Z,26.82
2018-09-21T15:02:43.740Z,26.84
2018-09-21T15:05:12.792Z,26.65
2018-09-21T15:07:41.828Z,26.41
2018-09-21T15:10:12.498Z,26.07
2018-09-21T15:12:42.602Z,25.45
2018-09-21T15:15:11.843Z,24.83
2018-09-21T15:17:41.043Z,24.41
2018-09-21T15:20:11.910Z,24.08
2018-09-21T15:22:41.126Z,23.71
2018-09-21T15:25:09.392Z,23.44
2018-09-21T15:27:38.140Z,23.09
2018-09-21T15:30:07.462Z,22.75
2018-09-21T15:32:36.486Z,22.33
2018-09-21T15:35:05.112Z,22.07
2018-09-21T15:37:34.092Z,21.85
2018-09-21T15:40:03.627Z,21.58
2018-09-21T15:42:32.300Z,21.62
2018-09-21T15:45:02.376Z,21.64
2018-09-21T15:47:31.495Z,21.71
2018-09-21T15:50:00.056Z,21.74
2018-09-21T15:52:28.576Z,21.79
2018-09-21T15:54:57.604Z,21.76
2018-09-21T15:57:26.618Z,21.40
2018-09-21T15:59:55.431Z,21.07
2018-09-21T16:02:23.874Z,21.01
2018-09-21T16:04:52.628Z,21.03
2018-09-21T16:07:21.416Z,20.92
2018-09-21T16:09:50.233Z,20.74
2018-09-21T16:12:19.310Z,20.69
2018-09-21T16:14:48.462Z,20.59
2018-09-21T16:17:17.177Z,20.60
2018-09-21T16:19:46.209Z,20.65
2018-09-21T16:22:14.657Z,20.65
2018-09-21T16:24:42.630Z,20.68
2018-09-21T16:27:10.532Z,20.71
2018-09-21T16:29:39.192Z,20.73
2018-09-21T16:32:07.757Z,20.67
2018-09-21T16:34:36.765Z,20.42
2018-09-21T16:37:05.894Z,20.41
2018-09-21T16:39:35.350Z,20.20
2018-09-21T16:42:04.527Z,20.20
2018-09-21T16:44:33.177Z,19.97
2018-09-21T16:47:01.926Z,19.92
2018-09-21T16:49:30.690Z,19.87
2018-09-21T16:51:59.752Z,19.73
2018-09-21T16:54:28.602Z,19.54
2018-09-21T16:56:57.371Z,19.35
2018-09-21T16:59:26.726Z,19.32
2018-09-21T17:01:55.748Z,19.16
2018-09-21T17:04:24.373Z,18.84
2018-09-21T17:06:52.817Z,18.68
2018-09-21T17:09:21.730Z,18.67
2018-09-21T17:11:50.428Z,18.50
2018-09-21T17:14:19.051Z,18.46
2018-09-21T17:16:48.080Z,18.43
2018-09-21T17:19:16.929Z,18.32
2018-09-21T17:21:45.872Z,18.30
2018-09-21T17:24:14.773Z,18.38
2018-09-21T17:26:43.521Z,18.33
2018-09-21T17:29:12.846Z,18.26
2018-09-21T17:31:42.060Z,18.25
2018-09-21T17:34:10.644Z,18.20
2018-09-21T17:36:39.280Z,18.14
2018-09-21T17:39:10.155Z,18.04
2018-09-21T17:41:38.798Z,18.01
2018-09-21T17:44:07.381Z,17.95
2018-09-21T17:46:35.988Z,18.00
2018-09-21T17:49:04.687Z,17.98
2018-09-21T17:51:34.005Z,17.86
2018-09-21T17:54:02.975Z,17.86
2018-09-21T17:56:31.553Z,17.72
2018-09-21T17:59:00.079Z,17.66
2018-09-21T18:01:28.699Z,17.54
2018-09-21T18:04:04.675Z,17.76
2018-09-21T18:06:33.433Z,17.99
2018-09-21T18:09:02.393Z,18.03
2018-09-21T18:11:31.353Z,17.99
2018-09-21T18:14:00.239Z,17.96
2018-09-21T18:16:29.099Z,18.05
2018-09-21T18:18:57.924Z,18.20
2018-09-21T18:21:27.034Z,18.17
2018-09-21T18:23:55.866Z,18.07
2018-09-21T18:26:24.734Z,17.96
2018-09-21T18:28:53.774Z,17.89
2018-09-21T18:31:23.042Z,17.86
2018-09-21T18:33:52.104Z,17.87
2018-09-21T18:36:21.182Z,17.88
2018-09-21T18:38:49.926Z,17.93
2018-09-21T18:41:18.830Z,17.86
2018-09-21T18:43:47.672Z,17.79
2018-09-21T18:46:16.222Z,17.72
2018-09-21T18:48:44.968Z,17.60
2018-09-21T18:51:13.615Z,17.66
2018-09-21T18:53:42.393Z,17.71
2018-09-21T18:56:12.011Z,17.70
2018-09-21T18:58:41.518Z,17.72
2018-09-21T19:01:10.103Z,17.75
2018-09-21T19:03:39.065Z,17.79
2018-09-21T19:06:07.885Z,17.73
2018-09-21T19:08:36.860Z,17.65
2018-09-21T19:11:05.453Z,17.66
2018-09-21T19:13:34.036Z,17.58
2018-09-21T19:16:02.724Z,17.51
2018-09-21T19:18:31.294Z,17.51
2018-09-21T19:21:00.437Z,17.52
2018-09-21T19:23:29.143Z,17.56
2018-09-21T19:25:57.835Z,17.55
2018-09-21T19:28:26.823Z,17.60
2018-09-21T19:30:55.524Z,17.63
2018-09-21T19:33:24.656Z,17.69
2018-09-21T19:35:53.615Z,17.68
2018-09-21T19:38:22.721Z,17.70
2018-09-21T19:40:51.426Z,17.61
2018-09-21T19:43:20.101Z,17.59
2018-09-21T19:45:48.890Z,17.56
2018-09-21T19:48:18.142Z,17.61
2018-09-21T19:50:46.878Z,17.56
2018-09-21T19:53:15.582Z,17.53
2018-09-21T19:55:44.306Z,17.55
2018-09-21T19:58:12.953Z,17.50
2018-09-21T20:00:41.734Z,17.46
2018-09-21T20:03:10.508Z,17.44
2018-09-21T20:05:39.219Z,17.44
2018-09-21T20:08:07.892Z,17.44
2018-09-21T20:10:36.487Z,17.42
2018-09-21T20:13:05.261Z,17.40
2018-09-21T20:15:33.895Z,17.34
2018-09-21T20:18:02.612Z,17.36
2018-09-21T20:20:31.397Z,17.39
2018-09-21T20:23:14.703Z,17.20
2018-09-21T20:25:43.309Z,17.02
2018-09-21T20:28:12.001Z,17.01
2018-09-21T20:31:49.486Z,17.15
2018-09-21T20:34:18.283Z,17.12
2018-09-21T20:36:46.969Z,17.00
2018-09-21T20:39:15.534Z,17.03
2018-09-21T20:41:44.204Z,17.03
2018-09-21T20:44:17.999Z,16.97
2018-09-21T20:46:47.720Z,16.89
2018-09-21T20:49:16.647Z,16.89
2018-09-21T20:51:45.846Z,16.87
2018-09-21T20:54:15.176Z,16.90
2018-09-21T20:56:44.031Z,16.87
2018-09-21T20:59:13.322Z,16.78
2018-09-21T21:01:41.931Z,16.79
2018-09-21T21:04:10.737Z,16.85
2018-09-21T21:06:39.824Z,16.78
2018-09-21T21:09:09.658Z,16.81
2018-09-21T21:11:38.582Z,16.83
2018-09-21T21:14:07.371Z,16.75
2018-09-21T21:16:36.869Z,16.79
2018-09-21T21:19:06.211Z,16.81
2018-09-21T21:21:35.329Z,16.85
2018-09-21T21:24:04.325Z,16.76
2018-09-21T21:26:32.968Z,16.65
2018-09-21T21:29:01.557Z,16.64
2018-09-21T21:31:30.006Z,16.65
2018-09-21T21:33:58.591Z,16.71
2018-09-21T21:36:27.341Z,16.58
2018-09-21T21:38:55.920Z,16.60
2018-09-21T21:41:24.631Z,16.59
2018-09-21T21:43:53.272Z,16.61
2018-09-21T21:46:22.965Z,16.56
2018-09-21T21:48:51.588Z,16.56
2018-09-21T21:51:20.136Z,16.51
2018-09-21T21:53:48.597Z,16.43
2018-09-21T21:56:17.100Z,16.40
2018-09-21T21:58:45.600Z,16.43
2018-09-21T22:01:19.366Z,16.53
2018-09-21T22:03:48.039Z,16.55
2018-09-21T22:06:16.529Z,16.48
2018-09-21T22:08:45.219Z,16.57
2018-09-21T22:11:18.792Z,16.59
2018-09-21T22:13:52.554Z,16.49
2018-09-21T22:16:21.078Z,16.50
2018-09-21T22:18:49.830Z,16.38
2018-09-21T22:21:18.267Z,16.31
2018-09-21T22:23:47.016Z,16.32
2018-09-21T22:26:15.574Z,16.36
2018-09-21T22:28:44.055Z,16.28
2018-09-21T22:31:13.218Z,16.26
2018-09-21T22:33:43.370Z,16.18
2018-09-21T22:36:12.207Z,16.17
2018-09-21T22:38:41.568Z,16.09
2018-09-21T22:41:10.581Z,16.07
2018-09-21T22:43:39.324Z,16.05
2018-09-21T22:46:08.055Z,16.10
2018-09-21T22:48:36.787Z,16.07
2018-09-21T22:51:05.912Z,16.08
2018-09-21T22:53:34.468Z,16.11
2018-09-21T22:56:03.008Z,16.04
2018-09-21T22:58:31.632Z,16.09
2018-09-21T23:01:00.256Z,16.07
2018-09-21T23:03:30.370Z,15.96
2018-09-21T23:06:00.944Z,15.85
2018-09-21T23:08:30.991Z,15.86
2018-09-21T23:10:59.588Z,15.86
2018-09-21T23:13:28.177Z,15.87
2018-09-21T23:15:56.782Z,15.89
2018-09-21T23:18:25.260Z,15.87
2018-09-21T23:20:53.830Z,15.86
2018-09-21T23:23:22.322Z,15.88
2018-09-21T23:25:51.276Z,15.92
2018-09-21T23:28:20.232Z,15.82
2018-09-21T23:30:48.756Z,15.72
2018-09-21T23:33:17.242Z,15.68
2018-09-21T23:35:45.872Z,15.59
2018-09-21T23:38:14.466Z,15.51
2018-09-21T23:40:42.988Z,15.43
2018-09-21T23:43:11.490Z,15.41
2018-09-21T23:45:40.066Z,15.36
2018-09-21T23:48:08.970Z,15.37
2018-09-21T23:50:37.950Z,15.40
2018-09-21T23:53:06.500Z,15.34
2018-09-21T23:55:35.359Z,15.29
2018-09-21T23:58:03.951Z,15.30
